»·PEaware :: UAL2412 KSFO-KRNO

UAL2412 :: KSFO-KRNO

FLIGHT INFORMATION

Flight Status: Arrived
Operator:
United Airlines
More flights by this operator :: More flights under this callsign
Pilot: Kevin M. (7)
Aircraft: BOEING 737-800
(B738)
More flights by this aircraft type
Origin: KSFO San Francisco Intl
United States
Destination: KRNO Reno/Tahoe Intl
United States
More flights between these airports :: More routes between these airports
Route: TRUKN2 ORRCA HOBOA JUDPU
File this flight plan on PilotEdge
Remarks:
Altitude:
(Current/Filed)
27,000ft
Speed:
(Current/Filed)
0kts
Departed: 16-May-18 01:53 PM
Arrived: 16-May-18 02:26 PM
Distance/Time
Traveled:
167nm/0:33
Distance/Time
To Go:
Arrived

Flight Plot

Page will automatically refresh every two minutes.

Flight plan parsing failed; only flown route is shown


Map Options




Map Legend


Flown Route
Filed Route
Departure Airport
Arrival Airport
Navaid (VOR, NDB)
Fix

Horizontal Profiles

Position Reports

Time Latitude Longitude Heading Altitude Ground
Speed
16-May-18 13:32 37.619785 -122.384501 172 20ft 0kts
16-May-18 13:33 37.619785 -122.384501 172 20ft 0kts
16-May-18 13:34 37.619785 -122.384501 172 20ft 0kts
16-May-18 13:35 37.619785 -122.384501 172 20ft 0kts
16-May-18 13:36 37.619785 -122.384501 172 20ft 0kts
16-May-18 13:37 37.619785 -122.384501 172 20ft 0kts
16-May-18 13:38 37.619785 -122.384501 172 20ft 0kts
16-May-18 13:39 37.619785 -122.384501 172 20ft 0kts
16-May-18 13:40 37.619785 -122.384501 172 20ft 0kts
16-May-18 13:41 37.619785 -122.384501 172 20ft 0kts
16-May-18 13:42 37.619785 -122.384501 172 20ft 0kts
16-May-18 13:43 37.619785 -122.384501 172 20ft 0kts
16-May-18 13:44 37.619785 -122.384501 172 21ft 0kts
16-May-18 13:45 37.620121 -122.384558 172 21ft 0kts
16-May-18 13:46 37.620345 -122.385103 58 21ft 2kts
16-May-18 13:47 37.620185 -122.385270 26 20ft 0kts
16-May-18 13:48 37.620185 -122.385270 26 20ft 0kts
16-May-18 13:49 37.620136 -122.383162 119 21ft 24kts
16-May-18 13:50 37.612826 -122.382155 208 21ft 40kts
16-May-18 13:51 37.610776 -122.382513 118 21ft 3kts
16-May-18 13:52 37.610283 -122.382848 219 21ft 14kts
16-May-18 13:53 37.617177 -122.376778 27 21ft 130kts
16-May-18 13:54 37.653962 -122.335258 53 2088ft 223kts
16-May-18 13:55 37.689860 -122.270093 52 5113ft 244kts
16-May-18 13:56 37.729104 -122.206802 39 8222ft 239kts
16-May-18 13:57 37.785054 -122.154352 35 10223ft 279kts
16-May-18 13:58 37.847761 -122.097602 36 12198ft 314kts
16-May-18 13:59 37.913995 -122.037489 35 14670ft 325kts
16-May-18 14:00 37.973929 -121.982974 35 16683ft 334kts
16-May-18 14:01 38.064158 -121.900726 35 18506ft 374kts
16-May-18 14:02 38.146757 -121.825236 35 19508ft 417kts
16-May-18 14:03 38.239735 -121.739997 34 20987ft 445kts
16-May-18 14:04 38.339828 -121.647911 34 22913ft 459kts
16-May-18 14:05 38.437317 -121.547505 51 25095ft 465kts
16-May-18 14:06 38.477942 -121.400087 73 27086ft 470kts
16-May-18 14:07 38.498256 -121.297380 73 27142ft 479kts
16-May-18 14:08 38.528865 -121.145999 73 27146ft 480kts
16-May-18 14:09 38.562286 -120.982761 77 27154ft 494kts
16-May-18 14:10 38.596019 -120.818473 77 27161ft 494kts
16-May-18 14:11 38.630557 -120.651558 77 27166ft 494kts
16-May-18 14:12 38.665075 -120.485889 76 27154ft 485kts
16-May-18 14:13 38.698055 -120.328581 77 25361ft 480kts
16-May-18 14:14 38.729957 -120.177496 77 22756ft 460kts
16-May-18 14:15 38.759849 -120.036461 77 20410ft 438kts
16-May-18 14:16 38.789428 -119.897571 77 18131ft 416kts
16-May-18 14:17 38.848989 -119.782213 22 15978ft 399kts
16-May-18 14:18 38.951111 -119.772098 2 15202ft 373kts
16-May-18 14:19 39.053461 -119.771500 359 12630ft 365kts
16-May-18 14:20 39.144271 -119.771125 359 11484ft 331kts
16-May-18 14:21 39.232069 -119.771451 358 10476ft 294kts
16-May-18 14:22 39.310050 -119.770150 359 9673ft 282kts
16-May-18 14:23 39.383072 -119.769554 358 7961ft 255kts
16-May-18 14:24 39.444839 -119.769545 357 5539ft 205kts
16-May-18 14:25 39.491598 -119.769232 355 4424ft 149kts
16-May-18 14:26 39.510753 -119.769405 323 4423ft 25kts
16-May-18 14:27 39.507863 -119.771512 177 4422ft 18kts
16-May-18 14:28 39.506607 -119.772342 324 4423ft 0kts
16-May-18 14:29 39.506607 -119.772342 324 4423ft 0kts

Navigation Log

Ident Type
Flight plan parsing failed, navigation log unavailable